Bagdad, Arizona
Current Conditions -  °F | °C
As of 1:53 PM on Friday 31 Oct 2014 (Local Time) from KPRC Reporting Station
Clear Clear  
Wind Chill: 75°   Ceiling: Unl
Heat Index: 75°   Visibility: 10mi
Dew Point: 35°   Wind: 18mph
Humidity: 23%   Direction: 140°SE
Pressure: 30.03"   Gusts: 28mph
Location:  34.58°N, 113.17°W
Report Text: KPRC 312053Z 14016G24KT 10SM CLR 24/02 A3003 RMK AO2 PK WND 13026/2042 SLP105 T02390017 56024
Loading
Personal Weather Stations






























Interactive Weather Map
Tropical Storm Tracking
New forecast layout! Learn more

10-Day Weather Forecast

Advertisements
Track Severe Weather on mobile